createdAt,value
2023-03-06T00:01:10.723Z,18.08
2023-03-06T00:03:38.839Z,19.58
2023-03-06T00:06:07.556Z,18.33
2023-03-06T00:08:35.631Z,21.98
2023-03-06T00:11:03.585Z,20.10
2023-03-06T00:13:32.216Z,21.55
2023-03-06T00:16:01.679Z,22.20
2023-03-06T00:18:31.147Z,20.42
2023-03-06T00:20:59.139Z,20.00
2023-03-06T00:23:28.054Z,20.30
2023-03-06T00:25:56.094Z,23.33
2023-03-06T00:28:24.280Z,20.08
2023-03-06T00:30:52.351Z,20.40
2023-03-06T00:33:20.400Z,20.75
2023-03-06T00:35:49.741Z,20.23
2023-03-06T00:38:17.813Z,20.60
2023-03-06T00:40:45.991Z,20.33
2023-03-06T00:43:14.438Z,20.25
2023-03-06T00:45:42.577Z,20.58
2023-03-06T00:48:10.725Z,17.08
2023-03-06T00:50:38.782Z,20.15
2023-03-06T00:53:11.116Z,18.95
2023-03-06T00:55:39.115Z,22.20
2023-03-06T00:58:07.153Z,20.40
2023-03-06T01:00:35.191Z,21.67
2023-03-06T01:03:03.531Z,24.17
2023-03-06T01:05:32.158Z,21.50
2023-03-06T01:08:00.277Z,22.38
2023-03-06T01:10:29.798Z,21.48
2023-03-06T01:12:58.016Z,20.85
2023-03-06T01:15:26.780Z,22.80
2023-03-06T01:17:55.170Z,24.30
2023-03-06T01:20:23.517Z,25.30
2023-03-06T01:22:51.602Z,22.60
2023-03-06T01:25:19.678Z,23.38
2023-03-06T01:27:49.147Z,23.95
2023-03-06T01:30:17.369Z,25.60
2023-03-06T01:32:45.447Z,23.35
2023-03-06T01:35:14.176Z,24.08
2023-03-06T01:37:43.027Z,22.25
2023-03-06T01:40:13.502Z,22.55
2023-03-06T01:42:42.505Z,20.27
2023-03-06T01:45:43.748Z,22.23
2023-03-06T01:48:13.696Z,19.38
2023-03-06T01:50:42.100Z,21.88
2023-03-06T01:53:10.454Z,22.00
2023-03-06T01:55:38.717Z,20.85
2023-03-06T01:58:10.077Z,21.20
2023-03-06T02:00:38.418Z,22.85
2023-03-06T02:03:11.077Z,18.10
2023-03-06T02:05:42.656Z,25.20
2023-03-06T02:08:11.947Z,22.27
2023-03-06T02:10:43.547Z,20.65
2023-03-06T02:13:11.703Z,19.92
2023-03-06T02:15:40.196Z,20.50
2023-03-06T02:18:08.458Z,21.23
2023-03-06T02:20:44.871Z,20.20
2023-03-06T02:23:21.192Z,21.17
2023-03-06T02:25:52.580Z,22.17
2023-03-06T02:28:23.187Z,19.55
2023-03-06T02:30:53.510Z,21.67
2023-03-06T02:33:24.266Z,20.33
2023-03-06T02:35:55.165Z,21.98
2023-03-06T02:38:26.462Z,22.98
2023-03-06T02:40:58.063Z,25.52
2023-03-06T02:43:30.730Z,22.90
2023-03-06T02:45:59.099Z,22.95
2023-03-06T02:48:27.272Z,21.90
2023-03-06T02:50:55.364Z,24.00
2023-03-06T02:53:23.747Z,19.85
2023-03-06T02:55:52.335Z,22.45
2023-03-06T02:58:21.874Z,21.58
2023-03-06T03:00:50.615Z,21.05
2023-03-06T03:03:19.177Z,23.67
2023-03-06T03:05:47.223Z,25.25
2023-03-06T03:08:15.265Z,24.02
2023-03-06T03:10:43.319Z,24.88
2023-03-06T03:13:11.410Z,23.17
2023-03-06T03:15:41.300Z,25.92
2023-03-06T03:18:10.338Z,22.30
2023-03-06T03:20:38.404Z,24.40
2023-03-06T03:23:06.424Z,24.45
2023-03-06T03:25:34.445Z,24.60
2023-03-06T03:28:02.624Z,23.70
2023-03-06T03:30:32.147Z,22.38
2023-03-06T03:33:01.562Z,27.85
2023-03-06T03:35:29.722Z,30.48
2023-03-06T03:37:57.842Z,26.17
2023-03-06T03:40:25.860Z,28.02
2023-03-06T03:42:54.022Z,24.85
2023-03-06T03:45:22.258Z,23.63
2023-03-06T03:47:50.308Z,27.13
2023-03-06T03:50:20.322Z,24.33
2023-03-06T03:52:48.296Z,20.55
2023-03-06T03:55:16.341Z,21.75
2023-03-06T03:57:44.491Z,22.52
2023-03-06T04:00:16.396Z,22.08
2023-03-06T04:02:45.190Z,23.83
2023-03-06T04:05:15.021Z,23.25
2023-03-06T04:07:44.878Z,23.88
2023-03-06T04:10:14.010Z,20.75
2023-03-06T04:12:42.265Z,20.85
2023-03-06T04:15:11.177Z,22.23
2023-03-06T04:17:39.189Z,21.58
2023-03-06T04:20:08.397Z,24.92
2023-03-06T04:22:36.381Z,26.83
2023-03-06T04:25:06.665Z,22.48
2023-03-06T04:27:34.757Z,27.60
2023-03-06T04:30:02.845Z,28.02
2023-03-06T04:32:30.991Z,23.38
2023-03-06T04:34:59.230Z,23.20
2023-03-06T04:37:27.644Z,28.23
2023-03-06T04:39:55.921Z,23.20
2023-03-06T04:42:25.400Z,27.05
2023-03-06T04:44:53.500Z,23.05
2023-03-06T04:47:21.644Z,26.15
2023-03-06T04:49:49.788Z,23.77
2023-03-06T04:52:17.923Z,24.55
2023-03-06T04:54:46.484Z,24.77
2023-03-06T04:57:15.169Z,25.02
2023-03-06T04:59:44.638Z,30.20
2023-03-06T05:02:12.644Z,29.55
2023-03-06T05:04:40.807Z,23.42
2023-03-06T05:07:08.933Z,26.17
2023-03-06T05:09:39.169Z,25.98
2023-03-06T05:12:07.706Z,26.15
2023-03-06T05:14:35.822Z,21.63
2023-03-06T05:17:05.250Z,24.17
2023-03-06T05:19:33.307Z,26.42
2023-03-06T05:22:01.375Z,30.02
2023-03-06T05:24:29.618Z,24.77
2023-03-06T05:26:57.685Z,26.42
2023-03-06T05:29:25.785Z,27.95
2023-03-06T05:31:54.013Z,28.55
2023-03-06T05:34:23.831Z,23.83
2023-03-06T05:36:51.943Z,22.48
2023-03-06T05:39:20.065Z,26.98
2023-03-06T05:41:48.035Z,24.42
2023-03-06T05:44:16.065Z,27.23
2023-03-06T05:46:44.016Z,27.25
2023-03-06T05:49:12.109Z,28.20
2023-03-06T05:51:41.534Z,29.55
2023-03-06T05:54:09.601Z,26.40
2023-03-06T05:56:37.749Z,28.17
2023-03-06T05:59:05.777Z,25.95
2023-03-06T06:01:33.745Z,34.05
2023-03-06T06:04:01.839Z,36.25
2023-03-06T06:06:29.879Z,36.58
2023-03-06T06:08:59.333Z,34.80
2023-03-06T06:11:27.328Z,30.83
2023-03-06T06:13:55.270Z,33.33
2023-03-06T06:16:23.384Z,30.17
2023-03-06T06:18:51.423Z,28.25
2023-03-06T06:21:19.512Z,30.10
2023-03-06T06:23:47.935Z,30.58
2023-03-06T06:26:17.517Z,25.20
2023-03-06T06:28:45.572Z,24.42
2023-03-06T06:31:14.573Z,24.85
2023-03-06T06:33:43.193Z,26.55
2023-03-06T06:36:19.156Z,27.73
2023-03-06T06:38:47.255Z,25.10
2023-03-06T06:44:08.597Z,28.38
2023-03-06T06:47:20.644Z,21.63
2023-03-06T06:49:25.496Z,21.83
2023-03-06T06:51:53.524Z,27.25
2023-03-06T06:54:22.390Z,23.65
2023-03-06T06:56:50.496Z,25.48
2023-03-06T06:59:20.309Z,26.63
2023-03-06T07:01:48.418Z,26.90
2023-03-06T07:04:18.101Z,26.98
2023-03-06T07:06:47.505Z,29.05
2023-03-06T07:09:16.247Z,28.08
2023-03-06T07:11:44.243Z,24.58
2023-03-06T07:14:12.338Z,30.38
2023-03-06T07:16:41.728Z,28.35
2023-03-06T07:19:09.961Z,31.63
2023-03-06T07:21:37.995Z,32.05
2023-03-06T07:24:06.501Z,27.67
2023-03-06T07:26:34.991Z,30.40
2023-03-06T07:29:03.769Z,31.77
2023-03-06T07:31:31.958Z,25.52
2023-03-06T07:34:03.875Z,30.40
2023-03-06T07:36:33.376Z,26.27
2023-03-06T07:39:01.728Z,30.52
2023-03-06T07:41:29.810Z,30.80
2023-03-06T07:43:57.881Z,31.52
2023-03-06T07:46:25.902Z,25.40
2023-03-06T07:48:54.264Z,29.17
2023-03-06T07:51:24.033Z,29.40
2023-03-06T07:53:52.080Z,27.75
2023-03-06T07:56:20.263Z,23.52
2023-03-06T07:58:49.016Z,22.45
2023-03-06T08:01:19.906Z,22.70
2023-03-06T08:03:50.087Z,25.58
2023-03-06T08:06:20.262Z,24.08
2023-03-06T08:08:52.497Z,21.90
2023-03-06T08:11:22.568Z,19.50
2023-03-06T08:13:52.816Z,21.58
2023-03-06T08:16:21.537Z,33.13
2023-03-06T08:18:49.818Z,18.63
2023-03-06T08:21:20.195Z,19.48
2023-03-06T08:23:49.734Z,16.75
2023-03-06T08:26:20.082Z,19.67
2023-03-06T08:28:48.747Z,15.80
2023-03-06T08:31:26.166Z,15.98
2023-03-06T08:33:54.651Z,21.13
2023-03-06T08:36:23.966Z,17.20
2023-03-06T08:38:53.723Z,15.05
2023-03-06T08:41:22.720Z,22.52
2023-03-06T08:43:51.729Z,14.95
2023-03-06T08:46:21.394Z,14.65
2023-03-06T08:48:49.499Z,16.50
2023-03-06T08:51:18.005Z,15.95
2023-03-06T08:53:46.331Z,13.57
2023-03-06T08:56:20.482Z,17.08
2023-03-06T08:58:48.985Z,12.67
2023-03-06T09:01:18.264Z,13.73
2023-03-06T09:03:47.054Z,13.40
2023-03-06T09:06:15.648Z,13.00
2023-03-06T09:08:44.787Z,13.50
2023-03-06T09:11:14.155Z,14.82
2023-03-06T09:13:44.517Z,17.73
2023-03-06T09:16:13.536Z,13.35
2023-03-06T09:18:41.973Z,11.90
2023-03-06T09:21:11.021Z,18.05
2023-03-06T09:23:40.580Z,17.50
2023-03-06T09:26:09.068Z,15.23
2023-03-06T09:28:40.631Z,15.77
2023-03-06T09:31:11.376Z,17.80
2023-03-06T09:33:40.221Z,14.40
2023-03-06T09:36:09.941Z,15.75
2023-03-06T09:38:37.973Z,13.23
2023-03-06T09:41:10.279Z,14.80
2023-03-06T09:43:43.507Z,14.65
2023-03-06T09:46:24.321Z,14.60
2023-03-06T09:49:10.519Z,15.48
2023-03-06T09:51:50.979Z,15.13
2023-03-06T09:54:28.053Z,14.73
2023-03-06T09:56:56.204Z,17.38
2023-03-06T09:59:27.664Z,11.40
2023-03-06T10:02:10.199Z,13.50
2023-03-06T10:04:42.022Z,11.85
2023-03-06T10:07:15.934Z,14.60
2023-03-06T10:09:48.532Z,15.23
2023-03-06T10:12:25.013Z,16.50
2023-03-06T10:15:08.158Z,14.45
2023-03-06T10:17:43.271Z,16.38
2023-03-06T10:20:18.780Z,14.27
2023-03-06T10:23:01.238Z,14.52
2023-03-06T10:25:34.498Z,12.88
2023-03-06T10:28:14.119Z,15.75
2023-03-06T10:30:47.734Z,13.23
2023-03-06T10:33:24.820Z,14.30
2023-03-06T10:35:55.244Z,13.05
2023-03-06T10:38:25.149Z,14.38
2023-03-06T10:41:05.436Z,13.02
2023-03-06T10:43:36.172Z,12.13
2023-03-06T10:46:05.143Z,15.43
2023-03-06T10:48:38.138Z,11.73
2023-03-06T10:51:19.405Z,15.60
2023-03-06T10:53:56.490Z,16.98
2023-03-06T10:56:30.319Z,13.93
2023-03-06T10:59:07.841Z,18.08
2023-03-06T11:01:36.084Z,12.35
2023-03-06T11:04:23.084Z,13.93
2023-03-06T11:07:06.681Z,15.25
2023-03-06T11:09:35.334Z,15.00
2023-03-06T11:12:23.360Z,17.50
2023-03-06T11:15:21.110Z,11.85
2023-03-06T11:17:58.848Z,15.38
2023-03-06T11:20:48.470Z,12.57
2023-03-06T11:23:22.765Z,13.68
2023-03-06T11:25:57.489Z,12.55
2023-03-06T11:28:29.733Z,11.75
2023-03-06T11:31:03.093Z,13.23
2023-03-06T11:33:36.792Z,12.02
2023-03-06T11:36:15.690Z,12.95
2023-03-06T11:38:50.087Z,14.60
2023-03-06T11:41:32.405Z,12.23
2023-03-06T11:44:13.788Z,16.27
2023-03-06T11:46:48.818Z,17.60
2023-03-06T11:49:23.972Z,13.90
2023-03-06T11:51:56.590Z,13.65
2023-03-06T11:54:24.830Z,13.05
2023-03-06T11:56:58.699Z,13.45
2023-03-06T11:59:45.969Z,10.85
2023-03-06T12:02:26.532Z,13.55
2023-03-06T12:05:02.972Z,14.32
2023-03-06T12:07:34.915Z,15.63
2023-03-06T12:10:18.455Z,13.32
2023-03-06T12:13:06.847Z,13.48
2023-03-06T12:15:50.387Z,12.43
2023-03-06T12:18:36.308Z,14.52
2023-03-06T12:21:11.103Z,12.93
2023-03-06T12:24:04.190Z,11.20
2023-03-06T12:26:53.469Z,15.27
2023-03-06T12:29:37.495Z,16.48
2023-03-06T12:32:16.913Z,15.07
2023-03-06T12:35:17.651Z,15.02
2023-03-06T12:37:59.444Z,13.43
2023-03-06T12:40:43.372Z,13.88
2023-03-06T12:43:34.732Z,11.80
2023-03-06T12:46:09.693Z,17.08
2023-03-06T12:51:08.973Z,11.90
2023-03-06T12:53:38.525Z,12.57
2023-03-06T12:56:08.977Z,13.20
2023-03-06T12:58:52.281Z,15.05
2023-03-06T13:01:58.032Z,18.25
2023-03-06T13:05:01.414Z,12.75
2023-03-06T13:07:55.659Z,12.93
2023-03-06T13:10:27.884Z,25.05
2023-03-06T13:13:01.042Z,11.90
2023-03-06T13:15:36.787Z,12.20
2023-03-06T13:18:56.890Z,11.88
2023-03-06T13:22:10.570Z,14.77
2023-03-06T13:24:38.871Z,12.07
2023-03-06T13:27:09.920Z,13.43
2023-03-06T13:30:08.261Z,12.90
2023-03-06T13:32:37.371Z,11.38
2023-03-06T13:35:53.186Z,11.60
2023-03-06T13:39:01.225Z,11.75
2023-03-06T13:41:54.478Z,11.85
2023-03-06T13:44:51.147Z,10.77
2023-03-06T13:48:06.545Z,12.95
2023-03-06T13:50:41.131Z,12.45
2023-03-06T13:53:33.080Z,11.90
2023-03-06T13:56:14.819Z,9.27
2023-03-06T13:59:04.410Z,13.38
2023-03-06T14:01:49.997Z,15.48
2023-03-06T14:04:38.974Z,14.63
2023-03-06T14:07:25.928Z,12.73
2023-03-06T14:10:12.728Z,14.13
2023-03-06T14:12:44.566Z,10.88
2023-03-06T14:15:20.177Z,11.60
2023-03-06T14:17:57.491Z,13.52
2023-03-06T14:20:33.413Z,10.57
2023-03-06T14:23:27.657Z,10.65
2023-03-06T14:26:00.118Z,9.63
2023-03-06T14:28:30.035Z,12.50
2023-03-06T14:30:59.903Z,10.50
2023-03-06T14:33:32.661Z,14.02
2023-03-06T14:36:04.290Z,8.60
2023-03-06T14:38:37.467Z,12.50
2023-03-06T14:41:06.818Z,10.18
2023-03-06T14:43:35.077Z,9.30
2023-03-06T14:46:05.131Z,11.50
2023-03-06T14:48:42.386Z,10.90
2023-03-06T14:51:18.083Z,10.65
2023-03-06T14:53:48.547Z,12.82
2023-03-06T14:56:20.124Z,21.95
2023-03-06T14:58:54.773Z,14.25
2023-03-06T15:01:33.220Z,9.85
2023-03-06T15:04:03.016Z,14.02
2023-03-06T15:06:36.440Z,8.75
2023-03-06T15:09:10.236Z,8.63
2023-03-06T15:11:59.346Z,10.45
2023-03-06T15:14:36.949Z,31.88
2023-03-06T15:17:29.901Z,10.57
2023-03-06T15:19:59.764Z,11.00
2023-03-06T15:22:32.831Z,11.15
2023-03-06T15:25:30.080Z,11.52
2023-03-06T15:27:59.927Z,11.50
2023-03-06T15:30:31.126Z,13.13
2023-03-06T15:33:21.210Z,12.57
2023-03-06T15:35:55.053Z,10.52
2023-03-06T15:38:31.101Z,11.73
2023-03-06T15:41:01.261Z,11.38
2023-03-06T15:43:30.960Z,11.70
2023-03-06T15:46:01.630Z,18.27
2023-03-06T15:48:29.831Z,17.13
2023-03-06T15:50:58.068Z,299.23
2023-03-06T15:53:28.473Z,109.03
2023-03-06T15:55:57.471Z,158.10
2023-03-06T15:58:26.944Z,426.35
2023-03-06T16:00:55.114Z,170.48
2023-03-06T16:03:23.216Z,61.60
2023-03-06T16:05:51.250Z,50.13
2023-03-06T16:08:19.350Z,38.83
2023-03-06T16:10:50.592Z,46.03
2023-03-06T16:13:24.845Z,29.95
2023-03-06T16:15:53.242Z,34.90
2023-03-06T16:18:21.519Z,28.73
2023-03-06T16:20:50.944Z,37.70
2023-03-06T16:23:19.135Z,46.88
2023-03-06T16:25:50.529Z,45.80
2023-03-06T16:28:18.943Z,48.95
2023-03-06T16:30:47.082Z,46.15
2023-03-06T16:33:15.695Z,30.35
2023-03-06T16:35:46.596Z,53.58
2023-03-06T16:38:15.798Z,43.63
2023-03-06T16:40:43.758Z,40.92
2023-03-06T16:43:16.158Z,51.28
2023-03-06T16:45:44.794Z,77.22
2023-03-06T16:48:17.074Z,54.20
2023-03-06T16:50:46.152Z,38.63
2023-03-06T16:53:14.193Z,46.60
2023-03-06T16:55:42.762Z,44.25
2023-03-06T16:58:12.320Z,29.55
2023-03-06T17:00:40.448Z,28.73
2023-03-06T17:03:08.729Z,36.10
2023-03-06T17:05:39.961Z,81.57
2023-03-06T17:08:08.040Z,66.47
2023-03-06T17:10:36.264Z,62.38
2023-03-06T17:13:05.170Z,60.05
2023-03-06T17:15:34.661Z,57.80
2023-03-06T17:18:02.784Z,51.97
2023-03-06T17:20:30.923Z,45.25
2023-03-06T17:22:59.054Z,46.05
2023-03-06T17:25:26.979Z,47.33
2023-03-06T17:27:55.064Z,46.95
2023-03-06T17:30:23.364Z,49.15
2023-03-06T17:32:53.745Z,35.85
2023-03-06T17:35:21.797Z,58.75
2023-03-06T17:37:49.924Z,41.70
2023-03-06T17:40:18.166Z,42.67
2023-03-06T17:42:46.151Z,44.60
2023-03-06T17:45:14.137Z,50.72
2023-03-06T17:47:42.253Z,73.20
2023-03-06T17:50:12.933Z,67.68
2023-03-06T17:52:41.136Z,65.03
2023-03-06T17:55:10.072Z,72.22
2023-03-06T17:57:38.001Z,88.10
2023-03-06T18:00:07.699Z,98.93
2023-03-06T18:02:35.809Z,73.70
2023-03-06T18:05:06.402Z,45.25
2023-03-06T18:07:35.958Z,38.45
2023-03-06T18:10:04.445Z,21.75
2023-03-06T18:12:32.742Z,24.90
2023-03-06T18:15:00.808Z,23.95
2023-03-06T18:17:28.876Z,26.98
2023-03-06T18:19:57.176Z,32.83
2023-03-06T18:22:25.280Z,23.58
2023-03-06T18:24:54.659Z,36.85
2023-03-06T18:27:22.833Z,194.20
2023-03-06T18:29:52.217Z,69.72
2023-03-06T18:32:20.201Z,45.85
2023-03-06T18:34:50.682Z,44.55
2023-03-06T18:37:18.863Z,44.05
2023-03-06T18:39:47.129Z,38.45
2023-03-06T18:42:16.640Z,63.78
2023-03-06T18:44:47.779Z,45.72
2023-03-06T18:47:16.273Z,51.08
2023-03-06T18:49:46.004Z,51.13
2023-03-06T18:52:14.028Z,59.83
2023-03-06T18:54:42.296Z,52.75
2023-03-06T18:57:11.386Z,56.17
2023-03-06T18:59:40.876Z,69.63
2023-03-06T19:02:08.955Z,82.40
2023-03-06T19:04:38.034Z,67.10
2023-03-06T19:07:06.235Z,104.97
2023-03-06T19:09:34.581Z,147.65
2023-03-06T19:12:03.765Z,131.93
2023-03-06T19:14:31.867Z,91.72
2023-03-06T19:17:01.956Z,78.03
2023-03-06T19:19:30.060Z,83.85
2023-03-06T19:21:59.564Z,90.20
2023-03-06T19:24:27.957Z,84.15
2023-03-06T19:26:55.961Z,77.13
2023-03-06T19:29:23.997Z,83.55
2023-03-06T19:31:52.276Z,77.38
2023-03-06T19:34:21.783Z,65.40
2023-03-06T19:36:53.608Z,65.97
2023-03-06T19:39:21.551Z,61.75
2023-03-06T19:41:49.547Z,56.55
2023-03-06T19:44:17.897Z,53.22
2023-03-06T19:46:45.940Z,66.03
2023-03-06T19:49:16.911Z,74.40
2023-03-06T19:51:46.408Z,73.72
2023-03-06T19:54:15.361Z,75.18
2023-03-06T19:56:43.827Z,77.20
2023-03-06T19:59:11.943Z,85.55
2023-03-06T20:01:40.458Z,81.30
2023-03-06T20:04:08.547Z,94.93
2023-03-06T20:06:37.757Z,88.53
2023-03-06T20:09:09.632Z,89.15
2023-03-06T20:11:37.834Z,92.35
2023-03-06T20:14:08.026Z,107.40
2023-03-06T20:16:37.281Z,81.43
2023-03-06T20:19:06.487Z,97.82
2023-03-06T20:21:37.657Z,90.15
2023-03-06T20:24:09.282Z,99.22
2023-03-06T20:26:38.633Z,85.60
2023-03-06T20:29:06.717Z,86.80
2023-03-06T20:31:34.754Z,81.82
2023-03-06T20:34:03.291Z,85.28
2023-03-06T20:36:35.527Z,73.72
2023-03-06T20:39:08.889Z,80.63
2023-03-06T20:41:37.268Z,86.43
2023-03-06T20:44:07.655Z,97.07
2023-03-06T20:46:36.587Z,92.53
2023-03-06T20:49:05.276Z,88.70
2023-03-06T20:51:36.257Z,85.28
2023-03-06T20:54:04.708Z,82.28
2023-03-06T20:56:36.346Z,87.50
2023-03-06T20:59:05.793Z,86.60
2023-03-06T21:01:36.264Z,98.03
2023-03-06T21:04:05.310Z,90.88
2023-03-06T21:06:34.081Z,81.55
2023-03-06T21:09:02.626Z,94.78
2023-03-06T21:11:30.838Z,131.18
2023-03-06T21:14:01.050Z,109.07
2023-03-06T21:16:30.356Z,101.20
2023-03-06T21:19:00.501Z,106.32
2023-03-06T21:21:31.276Z,111.35
2023-03-06T21:23:59.893Z,110.28
2023-03-06T21:26:30.137Z,109.15
2023-03-06T21:28:59.562Z,123.03
2023-03-06T21:31:28.403Z,112.85
2023-03-06T21:33:56.887Z,106.25
2023-03-06T21:36:25.072Z,73.57
2023-03-06T21:38:54.540Z,71.72
2023-03-06T21:41:25.088Z,61.67
2023-03-06T21:43:56.566Z,59.00
2023-03-06T21:46:27.121Z,54.50
2023-03-06T21:48:55.522Z,59.75
2023-03-06T21:51:24.757Z,54.05
2023-03-06T21:53:53.918Z,60.88
2023-03-06T21:56:25.047Z,62.58
2023-03-06T21:58:53.601Z,63.78
2023-03-06T22:01:23.810Z,63.95
2023-03-06T22:03:53.713Z,66.72
2023-03-06T22:06:25.014Z,68.88
2023-03-06T22:08:53.665Z,72.30
2023-03-06T22:11:23.483Z,70.22
2023-03-06T22:13:53.314Z,67.93
2023-03-06T22:16:21.637Z,78.60
2023-03-06T22:18:51.744Z,70.20
2023-03-06T22:21:23.352Z,74.20
2023-03-06T22:23:52.048Z,74.03
2023-03-06T22:26:20.838Z,75.80
2023-03-06T22:28:48.946Z,79.20
2023-03-06T22:31:18.739Z,73.65
2023-03-06T22:33:47.454Z,74.50
2023-03-06T22:36:16.939Z,69.30
2023-03-06T22:38:48.117Z,55.97
2023-03-06T22:41:20.262Z,51.47
2023-03-06T22:43:48.666Z,53.70
2023-03-06T22:46:18.561Z,54.20
2023-03-06T22:48:46.955Z,55.97
2023-03-06T22:51:17.190Z,55.65
2023-03-06T22:53:46.970Z,58.28
2023-03-06T22:56:17.176Z,62.70
2023-03-06T22:58:45.781Z,58.85
2023-03-06T23:01:16.088Z,55.72
2023-03-06T23:03:45.906Z,61.22
2023-03-06T23:06:15.751Z,60.70
2023-03-06T23:08:44.607Z,58.58
2023-03-06T23:11:17.227Z,60.10
2023-03-06T23:13:45.756Z,66.80
2023-03-06T23:16:14.365Z,71.80
2023-03-06T23:18:42.932Z,74.85
2023-03-06T23:21:13.253Z,72.25
2023-03-06T23:23:41.799Z,66.65
2023-03-06T23:26:11.905Z,61.63
2023-03-06T23:28:41.665Z,62.75
2023-03-06T23:31:10.570Z,61.60
2023-03-06T23:33:39.797Z,58.85
2023-03-06T23:36:09.896Z,57.30
2023-03-06T23:38:38.306Z,57.78
2023-03-06T23:41:09.091Z,57.17
2023-03-06T23:43:37.498Z,55.55
2023-03-06T23:46:08.264Z,53.65
2023-03-06T23:48:37.323Z,55.28
2023-03-06T23:51:07.581Z,53.42
2023-03-06T23:53:36.250Z,49.38
2023-03-06T23:56:06.455Z,42.03
2023-03-06T23:58:34.661Z,38.80
